Saint Marys, Maryland
Current Conditions -  °F | °C
As of 9:53 PM on Monday 26 Jan 2015 (Local Time) from KNUI Reporting Station
Overcast Overcast  
Wind Chill: 26°   Ceiling: 1200
Heat Index: 32°   Visibility: 10mi
Dew Point: 26°   Wind: 6mph
Humidity: 79%   Direction: 340°NNW
Pressure: 29.67"   Gusts: NA
Location:  38.1867°N, 76.4348°W
Report Text: KNUI 270253Z AUTO 34005KT 10SM OVC012 00/M03 A2967 RMK AO2 UPB14E39 SLP048 P0000 60001 T00001033 50005
Loading
Personal Weather Stations






























Interactive Weather Map New forecast layout! Learn more

10-Day Weather Forecast

Advertisements
Track Severe Weather on mobile